KCTY/CTY METAR and TAF weather

Enter ICAO airport designator
Station Type Date Time Source
KCTY METAR 2019/10/21 23:15 UTC NOAA

KCTY 212315Z AUTO 14003KT 10SM 24/24 A2995 RMK AO2 LTG DSNT E T02390236


Station Type Date Time Source
KCTY Decoded METAR 2019/10/21 23:15 UTC NOAA

CROSS CITY AIRPORT, FL, United States (KCTY) 29-38N 083-06W 12M
Oct 21, 2019 - 07:15 PM EDT / 2019.10.21 2315 UTC
Wind: from the SE (140 degrees) at 3 MPH (3 KT):0
Visibility: 10 mile(s):0
Weather: Lightning observed
Temperature: 75.0 F (23.9 C)
Dew Point: 74.5 F (23.6 C)
Relative Humidity: 98%
Pressure (altimeter): 29.95 in. Hg (1014 hPa)
ob: KCTY 212315Z AUTO 14003KT 10SM 24/24 A2995 RMK AO2 LTG DSNT E T02390236
cycle: 23

Station Type Date Time Source
KCTY TAF UTC NOAA

Error!

Example: see airport list